createdAt,value
2017-04-29T18:25:03.736Z,2.70
2017-04-29T18:27:31.456Z,1.52
2017-04-29T18:29:59.185Z,5.98
2017-04-29T18:32:26.913Z,4.04
2017-04-29T18:34:54.655Z,2.40
2017-04-29T18:37:22.380Z,1.63
2017-04-29T18:39:50.872Z,1.70
2017-04-29T18:42:19.368Z,6.63
2017-04-29T18:44:47.094Z,2.70
2017-04-29T18:47:14.836Z,3.02
2017-04-29T18:49:44.486Z,2.47
2017-04-29T18:52:12.246Z,3.40
2017-04-29T18:54:39.963Z,3.98
2017-04-29T18:57:08.432Z,3.52
2017-04-29T18:59:36.161Z,3.40
2017-04-29T19:02:03.879Z,6.95
2017-04-29T19:04:32.351Z,3.82
2017-04-29T19:07:01.203Z,4.75
2017-04-29T19:09:28.931Z,5.00
2017-04-29T19:11:56.702Z,4.17
2017-04-29T19:14:24.421Z,6.17
2017-04-29T19:16:52.892Z,8.43
2017-04-29T19:19:21.941Z,6.60
2017-04-29T19:21:49.734Z,12.80
2017-04-29T19:24:17.453Z,16.12
2017-04-29T19:26:46.014Z,8.95
2017-04-29T19:29:14.487Z,17.78
2017-04-29T19:31:43.020Z,12.28
2017-04-29T19:34:10.767Z,13.30
2017-04-29T19:36:38.485Z,15.73
2017-04-29T19:39:06.665Z,15.37
2017-04-29T19:41:34.389Z,15.82
2017-04-29T19:44:02.128Z,15.28
2017-04-29T19:46:30.056Z,17.42
2017-04-29T19:48:57.781Z,15.73
2017-04-29T19:51:25.512Z,14.68
2017-04-29T19:53:54.824Z,15.20
2017-04-29T19:56:22.551Z,13.68
2017-04-29T19:58:51.026Z,12.68
2017-04-29T20:01:18.815Z,13.02
2017-04-29T20:03:47.269Z,10.93
2017-04-29T20:06:15.023Z,15.30
2017-04-29T20:08:43.103Z,12.22
2017-04-29T20:11:10.831Z,9.40
2017-04-29T20:13:38.560Z,8.52
2017-04-29T20:16:06.371Z,5.80
2017-04-29T20:18:34.101Z,8.95
2017-04-29T20:21:01.847Z,6.55
2017-04-29T20:23:29.604Z,8.97
2017-04-29T20:25:58.079Z,6.00
2017-04-29T20:28:26.540Z,7.17
2017-04-29T20:30:54.293Z,8.85
2017-04-29T20:33:22.036Z,6.20
2017-04-29T20:35:49.776Z,7.35
2017-04-29T20:38:17.519Z,7.05
2017-04-29T20:40:45.256Z,7.65
2017-04-29T20:43:12.988Z,7.98
2017-04-29T20:45:40.725Z,7.28
2017-04-29T20:48:08.451Z,9.95
2017-04-29T20:50:36.195Z,7.40
2017-04-29T20:53:04.012Z,5.95
2017-04-29T20:55:31.735Z,6.45
2017-04-29T20:57:59.502Z,5.35
2017-04-29T21:00:27.269Z,7.05
2017-04-29T21:02:55.744Z,7.38
2017-04-29T21:05:23.464Z,7.88
2017-04-29T21:07:51.188Z,8.13
2017-04-29T21:10:19.656Z,8.93
2017-04-29T21:12:47.415Z,6.88
2017-04-29T21:15:15.140Z,6.73
2017-04-29T21:17:42.871Z,11.62
2017-04-29T21:20:11.632Z,9.53
2017-04-29T21:22:39.359Z,8.28
2017-04-29T21:25:07.076Z,9.52
2017-04-29T21:27:35.538Z,10.53
2017-04-29T21:30:03.264Z,8.98
2017-04-29T21:32:31.973Z,8.07
2017-04-29T21:34:59.696Z,23.25
2017-04-29T21:37:27.415Z,7.73
2017-04-29T21:39:55.143Z,7.93
2017-04-29T21:42:22.917Z,9.68
2017-04-29T21:44:50.658Z,10.40
2017-04-29T21:47:18.768Z,12.20
2017-04-29T21:49:46.488Z,11.38
2017-04-29T21:52:14.204Z,15.55
2017-04-29T21:54:41.971Z,10.50
2017-04-29T21:57:09.729Z,10.97
2017-04-29T21:59:38.584Z,13.40
2017-04-29T22:02:06.309Z,9.15
2017-04-29T22:04:34.053Z,10.30
2017-04-29T22:07:02.733Z,11.58
2017-04-29T22:09:30.457Z,8.40
2017-04-29T22:11:58.293Z,10.42
2017-04-29T22:14:26.034Z,12.22
2017-04-29T22:16:54.496Z,8.70
2017-04-29T22:19:22.378Z,9.73
2017-04-29T22:21:50.867Z,9.08
2017-04-29T22:24:19.365Z,8.53
2017-04-29T22:26:47.100Z,8.63
2017-04-29T22:29:15.572Z,9.45
2017-04-29T22:31:43.313Z,9.97
2017-04-29T22:34:11.303Z,9.05
2017-04-29T22:36:39.023Z,10.72
2017-04-29T22:39:06.749Z,8.27
2017-04-29T22:41:35.276Z,7.35
2017-04-29T22:44:03.001Z,6.47
2017-04-29T22:46:31.459Z,7.68
2017-04-29T22:48:59.186Z,7.88
2017-04-29T22:51:26.976Z,7.42
2017-04-29T22:53:54.692Z,9.33
2017-04-29T22:56:22.420Z,10.57
2017-04-29T22:58:50.896Z,6.93
2017-04-29T23:01:19.384Z,9.20
2017-04-29T23:03:47.860Z,7.20
2017-04-29T23:06:16.358Z,7.85
2017-04-29T23:08:45.123Z,8.23
2017-04-29T23:11:12.849Z,8.97
2017-04-29T23:13:40.571Z,11.95
2017-04-29T23:16:09.436Z,9.07
2017-04-29T23:18:37.164Z,8.65
2017-04-29T23:21:04.897Z,7.45
2017-04-29T23:23:32.660Z,8.60
2017-04-29T23:26:00.375Z,8.57
2017-04-29T23:28:28.141Z,9.08
2017-04-29T23:30:55.913Z,7.78
2017-04-29T23:33:23.635Z,12.13
2017-04-29T23:35:51.368Z,12.53
2017-04-29T23:38:19.976Z,13.37
2017-04-29T23:40:47.691Z,11.40
2017-04-29T23:43:15.421Z,14.13
2017-04-29T23:45:43.190Z,14.08
2017-04-29T23:48:10.913Z,11.55
2017-04-29T23:50:38.631Z,14.67
2017-04-29T23:53:07.129Z,10.85
2017-04-29T23:55:35.600Z,11.77
2017-04-29T23:58:03.334Z,13.28
